sensor_id;sensor_type;location;lat;lon;timestamp;temperature;humidity
46356;DHT22;32066;49.474;11.106;2023-02-26T00:01:44;6.00;86.20
46356;DHT22;32066;49.474;11.106;2023-02-26T00:04:14;6.00;85.90
46356;DHT22;32066;49.474;11.106;2023-02-26T00:06:45;5.90;86.00
46356;DHT22;32066;49.474;11.106;2023-02-26T00:09:20;5.90;85.90
46356;DHT22;32066;49.474;11.106;2023-02-26T00:11:49;5.90;85.80
46356;DHT22;32066;49.474;11.106;2023-02-26T00:14:18;5.90;86.00
46356;DHT22;32066;49.474;11.106;2023-02-26T00:16:54;5.90;85.70
46356;DHT22;32066;49.474;11.106;2023-02-26T00:19:25;5.90;85.70
46356;DHT22;32066;49.474;11.106;2023-02-26T00:21:57;5.80;85.50
46356;DHT22;32066;49.474;11.106;2023-02-26T00:24:26;5.80;85.40
46356;DHT22;32066;49.474;11.106;2023-02-26T00:26:55;5.70;85.30
46356;DHT22;32066;49.474;11.106;2023-02-26T00:29:24;5.80;85.40
46356;DHT22;32066;49.474;11.106;2023-02-26T00:31:53;5.70;85.30
46356;DHT22;32066;49.474;11.106;2023-02-26T00:34:23;5.70;85.20
46356;DHT22;32066;49.474;11.106;2023-02-26T00:37:05;5.70;85.10
46356;DHT22;32066;49.474;11.106;2023-02-26T00:39:45;5.80;85.10
46356;DHT22;32066;49.474;11.106;2023-02-26T00:42:16;5.70;85.00
46356;DHT22;32066;49.474;11.106;2023-02-26T00:44:45;5.70;85.10
46356;DHT22;32066;49.474;11.106;2023-02-26T00:47:19;5.70;85.00
46356;DHT22;32066;49.474;11.106;2023-02-26T00:50:04;5.70;84.80
46356;DHT22;32066;49.474;11.106;2023-02-26T00:52:43;5.70;84.80
46356;DHT22;32066;49.474;11.106;2023-02-26T00:55:13;5.70;85.00
46356;DHT22;32066;49.474;11.106;2023-02-26T00:57:42;5.70;84.90
46356;DHT22;32066;49.474;11.106;2023-02-26T01:00:12;5.70;85.00
46356;DHT22;32066;49.474;11.106;2023-02-26T01:02:42;5.70;85.00
46356;DHT22;32066;49.474;11.106;2023-02-26T01:05:12;5.70;84.90
46356;DHT22;32066;49.474;11.106;2023-02-26T01:07:47;5.70;84.90
46356;DHT22;32066;49.474;11.106;2023-02-26T01:10:20;5.60;85.00
46356;DHT22;32066;49.474;11.106;2023-02-26T01:12:49;5.60;84.90
46356;DHT22;32066;49.474;11.106;2023-02-26T01:15:19;5.60;84.80
46356;DHT22;32066;49.474;11.106;2023-02-26T01:17:52;5.60;84.80
46356;DHT22;32066;49.474;11.106;2023-02-26T01:20:27;5.60;84.80
46356;DHT22;32066;49.474;11.106;2023-02-26T01:23:02;5.60;84.70
46356;DHT22;32066;49.474;11.106;2023-02-26T01:25:37;5.60;84.70
46356;DHT22;32066;49.474;11.106;2023-02-26T01:28:09;5.60;84.80
46356;DHT22;32066;49.474;11.106;2023-02-26T01:30:38;5.60;84.50
46356;DHT22;32066;49.474;11.106;2023-02-26T01:33:11;5.60;84.40
46356;DHT22;32066;49.474;11.106;2023-02-26T01:35:45;5.50;84.30
46356;DHT22;32066;49.474;11.106;2023-02-26T01:38:23;5.50;84.10
46356;DHT22;32066;49.474;11.106;2023-02-26T01:41:22;5.50;83.90
46356;DHT22;32066;49.474;11.106;2023-02-26T01:44:09;5.50;83.90
46356;DHT22;32066;49.474;11.106;2023-02-26T01:46:51;5.50;83.70
46356;DHT22;32066;49.474;11.106;2023-02-26T01:49:22;5.50;83.40
46356;DHT22;32066;49.474;11.106;2023-02-26T01:51:53;5.50;83.20
46356;DHT22;32066;49.474;11.106;2023-02-26T01:54:27;5.50;83.10
46356;DHT22;32066;49.474;11.106;2023-02-26T01:57:00;5.40;82.80
46356;DHT22;32066;49.474;11.106;2023-02-26T01:59:32;5.40;82.70
46356;DHT22;32066;49.474;11.106;2023-02-26T02:02:04;5.40;82.50
46356;DHT22;32066;49.474;11.106;2023-02-26T02:04:33;5.40;82.40
46356;DHT22;32066;49.474;11.106;2023-02-26T02:07:03;5.40;82.30
46356;DHT22;32066;49.474;11.106;2023-02-26T02:09:35;5.40;82.10
46356;DHT22;32066;49.474;11.106;2023-02-26T02:12:12;5.40;82.00
46356;DHT22;32066;49.474;11.106;2023-02-26T02:14:57;5.30;82.00
46356;DHT22;32066;49.474;11.106;2023-02-26T02:17:36;5.30;81.90
46356;DHT22;32066;49.474;11.106;2023-02-26T02:20:32;5.30;81.80
46356;DHT22;32066;49.474;11.106;2023-02-26T02:23:14;5.30;81.80
46356;DHT22;32066;49.474;11.106;2023-02-26T02:29:13;5.30;82.40
46356;DHT22;32066;49.474;11.106;2023-02-26T02:31:53;5.30;81.80
46356;DHT22;32066;49.474;11.106;2023-02-26T02:34:28;5.30;81.70
46356;DHT22;32066;49.474;11.106;2023-02-26T02:37:00;5.20;81.70
46356;DHT22;32066;49.474;11.106;2023-02-26T02:39:32;5.20;81.70
46356;DHT22;32066;49.474;11.106;2023-02-26T02:42:05;5.20;81.70
46356;DHT22;32066;49.474;11.106;2023-02-26T02:44:38;5.20;81.60
46356;DHT22;32066;49.474;11.106;2023-02-26T02:47:12;5.20;81.50
46356;DHT22;32066;49.474;11.106;2023-02-26T02:49:48;5.20;81.60
46356;DHT22;32066;49.474;11.106;2023-02-26T02:52:21;5.20;81.40
46356;DHT22;32066;49.474;11.106;2023-02-26T02:54:57;5.10;81.30
46356;DHT22;32066;49.474;11.106;2023-02-26T02:57:30;5.10;81.20
46356;DHT22;32066;49.474;11.106;2023-02-26T03:00:04;5.20;81.20
46356;DHT22;32066;49.474;11.106;2023-02-26T03:02:44;5.20;81.20
46356;DHT22;32066;49.474;11.106;2023-02-26T03:05:14;5.10;81.00
46356;DHT22;32066;49.474;11.106;2023-02-26T03:07:48;5.10;81.10
46356;DHT22;32066;49.474;11.106;2023-02-26T03:10:18;5.20;81.10
46356;DHT22;32066;49.474;11.106;2023-02-26T03:12:47;5.10;81.20
46356;DHT22;32066;49.474;11.106;2023-02-26T03:15:20;5.10;81.10
46356;DHT22;32066;49.474;11.106;2023-02-26T03:17:59;5.10;81.20
46356;DHT22;32066;49.474;11.106;2023-02-26T03:20:33;5.10;81.00
46356;DHT22;32066;49.474;11.106;2023-02-26T03:23:10;5.10;81.10
46356;DHT22;32066;49.474;11.106;2023-02-26T03:25:48;5.10;81.00
46356;DHT22;32066;49.474;11.106;2023-02-26T03:28:23;5.10;81.20
46356;DHT22;32066;49.474;11.106;2023-02-26T03:30:57;5.10;81.10
46356;DHT22;32066;49.474;11.106;2023-02-26T03:33:35;5.10;81.10
46356;DHT22;32066;49.474;11.106;2023-02-26T03:36:15;5.00;80.90
46356;DHT22;32066;49.474;11.106;2023-02-26T03:38:58;5.10;80.80
46356;DHT22;32066;49.474;11.106;2023-02-26T03:41:31;5.00;80.80
46356;DHT22;32066;49.474;11.106;2023-02-26T03:44:04;5.00;80.80
46356;DHT22;32066;49.474;11.106;2023-02-26T03:46:37;5.00;80.70
46356;DHT22;32066;49.474;11.106;2023-02-26T03:49:15;5.00;80.80
46356;DHT22;32066;49.474;11.106;2023-02-26T03:51:46;5.00;80.70
46356;DHT22;32066;49.474;11.106;2023-02-26T03:54:44;5.00;80.80
46356;DHT22;32066;49.474;11.106;2023-02-26T03:57:50;5.00;80.80
46356;DHT22;32066;49.474;11.106;2023-02-26T04:00:41;5.00;80.50
46356;DHT22;32066;49.474;11.106;2023-02-26T04:03:14;4.90;80.60
46356;DHT22;32066;49.474;11.106;2023-02-26T04:05:49;4.90;80.60
46356;DHT22;32066;49.474;11.106;2023-02-26T04:08:21;4.90;80.60
46356;DHT22;32066;49.474;11.106;2023-02-26T04:10:54;4.90;80.60
46356;DHT22;32066;49.474;11.106;2023-02-26T04:13:24;4.90;80.60
46356;DHT22;32066;49.474;11.106;2023-02-26T04:15:53;4.90;80.60
46356;DHT22;32066;49.474;11.106;2023-02-26T04:18:22;4.90;80.60
46356;DHT22;32066;49.474;11.106;2023-02-26T04:20:53;4.90;80.50
46356;DHT22;32066;49.474;11.106;2023-02-26T04:23:22;4.90;80.60
46356;DHT22;32066;49.474;11.106;2023-02-26T04:25:51;4.90;80.60
46356;DHT22;32066;49.474;11.106;2023-02-26T04:28:19;4.90;80.80
46356;DHT22;32066;49.474;11.106;2023-02-26T04:30:48;4.90;80.70
46356;DHT22;32066;49.474;11.106;2023-02-26T04:33:18;4.90;80.70
46356;DHT22;32066;49.474;11.106;2023-02-26T04:35:48;4.90;80.70
46356;DHT22;32066;49.474;11.106;2023-02-26T04:38:19;4.90;80.60
46356;DHT22;32066;49.474;11.106;2023-02-26T04:40:48;4.90;80.70
46356;DHT22;32066;49.474;11.106;2023-02-26T04:43:19;4.90;80.70
46356;DHT22;32066;49.474;11.106;2023-02-26T04:46:03;4.90;80.50
46356;DHT22;32066;49.474;11.106;2023-02-26T04:48:33;5.00;80.60
46356;DHT22;32066;49.474;11.106;2023-02-26T04:51:01;4.90;81.10
46356;DHT22;32066;49.474;11.106;2023-02-26T04:53:34;4.90;80.40
46356;DHT22;32066;49.474;11.106;2023-02-26T04:56:03;4.90;80.40
46356;DHT22;32066;49.474;11.106;2023-02-26T04:58:33;5.00;80.30
46356;DHT22;32066;49.474;11.106;2023-02-26T05:01:07;5.00;80.40
46356;DHT22;32066;49.474;11.106;2023-02-26T05:03:35;5.00;80.30
46356;DHT22;32066;49.474;11.106;2023-02-26T05:06:04;5.00;80.20
46356;DHT22;32066;49.474;11.106;2023-02-26T05:08:36;5.00;80.10
46356;DHT22;32066;49.474;11.106;2023-02-26T05:11:07;5.00;80.00
46356;DHT22;32066;49.474;11.106;2023-02-26T05:13:36;5.00;80.00
46356;DHT22;32066;49.474;11.106;2023-02-26T05:16:06;5.00;79.80
46356;DHT22;32066;49.474;11.106;2023-02-26T05:18:35;5.00;79.90
46356;DHT22;32066;49.474;11.106;2023-02-26T05:21:04;5.00;79.80
46356;DHT22;32066;49.474;11.106;2023-02-26T05:23:36;5.00;79.80
46356;DHT22;32066;49.474;11.106;2023-02-26T05:26:04;5.00;79.80
46356;DHT22;32066;49.474;11.106;2023-02-26T05:28:33;5.00;79.70
46356;DHT22;32066;49.474;11.106;2023-02-26T05:31:02;5.00;79.60
46356;DHT22;32066;49.474;11.106;2023-02-26T05:33:31;5.00;79.60
46356;DHT22;32066;49.474;11.106;2023-02-26T05:36:00;5.00;79.60
46356;DHT22;32066;49.474;11.106;2023-02-26T05:38:29;5.00;79.60
46356;DHT22;32066;49.474;11.106;2023-02-26T05:41:00;5.00;79.60
46356;DHT22;32066;49.474;11.106;2023-02-26T05:43:29;5.00;79.50
46356;DHT22;32066;49.474;11.106;2023-02-26T05:45:58;5.00;79.50
46356;DHT22;32066;49.474;11.106;2023-02-26T05:48:27;5.00;79.50
46356;DHT22;32066;49.474;11.106;2023-02-26T05:50:56;5.00;79.50
46356;DHT22;32066;49.474;11.106;2023-02-26T05:53:25;5.00;79.50
46356;DHT22;32066;49.474;11.106;2023-02-26T05:55:54;5.00;79.50
46356;DHT22;32066;49.474;11.106;2023-02-26T05:58:25;5.00;79.50
46356;DHT22;32066;49.474;11.106;2023-02-26T06:00:57;5.00;79.50
46356;DHT22;32066;49.474;11.106;2023-02-26T06:03:26;5.00;79.50
46356;DHT22;32066;49.474;11.106;2023-02-26T06:05:54;5.00;79.60
46356;DHT22;32066;49.474;11.106;2023-02-26T06:08:23;5.00;79.60
46356;DHT22;32066;49.474;11.106;2023-02-26T06:10:51;5.00;79.70
46356;DHT22;32066;49.474;11.106;2023-02-26T06:13:20;5.00;79.70
46356;DHT22;32066;49.474;11.106;2023-02-26T06:15:52;5.00;79.80
46356;DHT22;32066;49.474;11.106;2023-02-26T06:18:21;5.00;79.80
46356;DHT22;32066;49.474;11.106;2023-02-26T06:20:49;5.10;80.10
46356;DHT22;32066;49.474;11.106;2023-02-26T06:23:18;5.10;80.10
46356;DHT22;32066;49.474;11.106;2023-02-26T06:25:49;5.00;80.00
46356;DHT22;32066;49.474;11.106;2023-02-26T06:28:18;5.00;80.10
46356;DHT22;32066;49.474;11.106;2023-02-26T06:30:52;5.00;80.10
46356;DHT22;32066;49.474;11.106;2023-02-26T06:33:21;5.10;80.30
46356;DHT22;32066;49.474;11.106;2023-02-26T06:35:50;5.10;80.30
46356;DHT22;32066;49.474;11.106;2023-02-26T06:38:18;5.10;80.30
46356;DHT22;32066;49.474;11.106;2023-02-26T06:40:47;5.10;80.30
46356;DHT22;32066;49.474;11.106;2023-02-26T06:43:16;5.10;80.30
46356;DHT22;32066;49.474;11.106;2023-02-26T06:45:45;5.10;80.40
46356;DHT22;32066;49.474;11.106;2023-02-26T06:48:16;5.10;81.10
46356;DHT22;32066;49.474;11.106;2023-02-26T06:50:45;5.10;80.60
46356;DHT22;32066;49.474;11.106;2023-02-26T06:53:13;5.20;80.50
46356;DHT22;32066;49.474;11.106;2023-02-26T06:55:43;5.20;80.60
46356;DHT22;32066;49.474;11.106;2023-02-26T06:58:13;5.20;80.60
46356;DHT22;32066;49.474;11.106;2023-02-26T07:00:41;5.20;80.60
46356;DHT22;32066;49.474;11.106;2023-02-26T07:03:11;5.20;80.60
46356;DHT22;32066;49.474;11.106;2023-02-26T07:05:44;5.30;81.30
46356;DHT22;32066;49.474;11.106;2023-02-26T07:08:13;5.30;80.60
46356;DHT22;32066;49.474;11.106;2023-02-26T07:10:42;5.30;80.50
46356;DHT22;32066;49.474;11.106;2023-02-26T07:13:13;5.30;80.50
46356;DHT22;32066;49.474;11.106;2023-02-26T07:15:42;5.30;81.10
46356;DHT22;32066;49.474;11.106;2023-02-26T07:18:11;5.30;80.50
46356;DHT22;32066;49.474;11.106;2023-02-26T07:20:40;5.30;80.50
46356;DHT22;32066;49.474;11.106;2023-02-26T07:23:12;5.30;80.50
46356;DHT22;32066;49.474;11.106;2023-02-26T07:25:41;5.40;80.60
46356;DHT22;32066;49.474;11.106;2023-02-26T07:28:09;5.40;80.60
46356;DHT22;32066;49.474;11.106;2023-02-26T07:30:38;5.40;80.60
46356;DHT22;32066;49.474;11.106;2023-02-26T07:33:07;5.40;80.50
46356;DHT22;32066;49.474;11.106;2023-02-26T07:35:36;5.40;80.60
46356;DHT22;32066;49.474;11.106;2023-02-26T07:38:05;5.50;80.60
46356;DHT22;32066;49.474;11.106;2023-02-26T07:40:36;5.50;80.70
46356;DHT22;32066;49.474;11.106;2023-02-26T07:43:04;5.50;80.70
46356;DHT22;32066;49.474;11.106;2023-02-26T07:45:33;5.50;80.80
46356;DHT22;32066;49.474;11.106;2023-02-26T07:48:02;5.60;80.90
46356;DHT22;32066;49.474;11.106;2023-02-26T07:50:31;5.60;81.10
46356;DHT22;32066;49.474;11.106;2023-02-26T07:52:59;5.60;81.20
46356;DHT22;32066;49.474;11.106;2023-02-26T07:55:28;5.60;81.20
46356;DHT22;32066;49.474;11.106;2023-02-26T07:57:59;5.80;81.40
46356;DHT22;32066;49.474;11.106;2023-02-26T08:00:28;5.90;81.60
46356;DHT22;32066;49.474;11.106;2023-02-26T08:02:56;6.00;81.70
46356;DHT22;32066;49.474;11.106;2023-02-26T08:05:25;6.20;82.20
46356;DHT22;32066;49.474;11.106;2023-02-26T08:07:54;6.40;83.00
46356;DHT22;32066;49.474;11.106;2023-02-26T08:10:22;6.60;83.20
46356;DHT22;32066;49.474;11.106;2023-02-26T08:12:51;6.80;83.30
46356;DHT22;32066;49.474;11.106;2023-02-26T08:15:22;6.90;83.00
46356;DHT22;32066;49.474;11.106;2023-02-26T08:17:51;7.10;82.70
46356;DHT22;32066;49.474;11.106;2023-02-26T08:20:21;7.10;82.40
46356;DHT22;32066;49.474;11.106;2023-02-26T08:22:50;7.20;82.00
46356;DHT22;32066;49.474;11.106;2023-02-26T08:25:19;7.20;81.30
46356;DHT22;32066;49.474;11.106;2023-02-26T08:27:48;7.20;81.10
46356;DHT22;32066;49.474;11.106;2023-02-26T08:30:17;7.20;80.90
46356;DHT22;32066;49.474;11.106;2023-02-26T08:32:48;7.20;80.80
46356;DHT22;32066;49.474;11.106;2023-02-26T08:35:17;7.30;80.80
46356;DHT22;32066;49.474;11.106;2023-02-26T08:37:46;7.40;80.90
46356;DHT22;32066;49.474;11.106;2023-02-26T08:40:14;7.40;80.30
46356;DHT22;32066;49.474;11.106;2023-02-26T08:42:43;7.40;79.70
46356;DHT22;32066;49.474;11.106;2023-02-26T08:45:12;7.40;79.10
46356;DHT22;32066;49.474;11.106;2023-02-26T08:47:41;7.40;78.70
46356;DHT22;32066;49.474;11.106;2023-02-26T08:50:13;7.40;78.60
46356;DHT22;32066;49.474;11.106;2023-02-26T08:52:41;7.40;78.40
46356;DHT22;32066;49.474;11.106;2023-02-26T08:55:10;7.70;78.30
46356;DHT22;32066;49.474;11.106;2023-02-26T08:57:39;7.40;78.00
46356;DHT22;32066;49.474;11.106;2023-02-26T09:00:09;7.40;77.90
46356;DHT22;32066;49.474;11.106;2023-02-26T09:02:40;7.40;77.70
46356;DHT22;32066;49.474;11.106;2023-02-26T09:05:09;7.40;77.40
46356;DHT22;32066;49.474;11.106;2023-02-26T09:07:42;7.40;78.30
46356;DHT22;32066;49.474;11.106;2023-02-26T09:10:12;7.40;79.00
46356;DHT22;32066;49.474;11.106;2023-02-26T09:12:41;7.40;79.20
46356;DHT22;32066;49.474;11.106;2023-02-26T09:15:12;7.40;78.80
46356;DHT22;32066;49.474;11.106;2023-02-26T09:17:42;7.40;79.20
46356;DHT22;32066;49.474;11.106;2023-02-26T09:20:12;7.30;78.50
46356;DHT22;32066;49.474;11.106;2023-02-26T09:22:43;7.40;78.60
46356;DHT22;32066;49.474;11.106;2023-02-26T09:25:13;7.50;79.00
46356;DHT22;32066;49.474;11.106;2023-02-26T09:27:42;7.50;79.30
46356;DHT22;32066;49.474;11.106;2023-02-26T09:30:12;7.80;79.80
46356;DHT22;32066;49.474;11.106;2023-02-26T09:32:41;8.10;80.30
46356;DHT22;32066;49.474;11.106;2023-02-26T09:35:09;8.40;80.00
46356;DHT22;32066;49.474;11.106;2023-02-26T09:37:39;8.60;79.20
46356;DHT22;32066;49.474;11.106;2023-02-26T09:40:22;8.70;78.30
46356;DHT22;32066;49.474;11.106;2023-02-26T09:43:07;9.60;99.90
46356;DHT22;32066;49.474;11.106;2023-02-26T09:45:44;10.20;99.90
46356;DHT22;32066;49.474;11.106;2023-02-26T09:48:17;8.50;74.10
46356;DHT22;32066;49.474;11.106;2023-02-26T09:50:48;7.70;73.90
46356;DHT22;32066;49.474;11.106;2023-02-26T09:53:21;6.70;73.70
46356;DHT22;32066;49.474;11.106;2023-02-26T09:55:55;6.30;74.90
46356;DHT22;32066;49.474;11.106;2023-02-26T09:58:28;6.00;75.00
46356;DHT22;32066;49.474;11.106;2023-02-26T10:01:05;5.70;75.70
46356;DHT22;32066;49.474;11.106;2023-02-26T10:03:53;5.50;76.80
46356;DHT22;32066;49.474;11.106;2023-02-26T10:06:27;5.40;76.10
46356;DHT22;32066;49.474;11.106;2023-02-26T10:09:16;5.20;76.60
46356;DHT22;32066;49.474;11.106;2023-02-26T10:11:56;5.20;74.30
46356;DHT22;32066;49.474;11.106;2023-02-26T10:14:32;5.00;75.20
46356;DHT22;32066;49.474;11.106;2023-02-26T10:17:06;5.00;75.60
46356;DHT22;32066;49.474;11.106;2023-02-26T10:19:38;4.90;75.30
46356;DHT22;32066;49.474;11.106;2023-02-26T10:22:15;4.80;76.20
46356;DHT22;32066;49.474;11.106;2023-02-26T10:24:51;4.80;76.20
46356;DHT22;32066;49.474;11.106;2023-02-26T10:27:38;4.70;75.20
46356;DHT22;32066;49.474;11.106;2023-02-26T10:30:15;4.60;74.90
46356;DHT22;32066;49.474;11.106;2023-02-26T10:32:54;4.60;73.70
46356;DHT22;32066;49.474;11.106;2023-02-26T10:35:28;4.50;75.10
46356;DHT22;32066;49.474;11.106;2023-02-26T10:38:02;4.50;75.60
46356;DHT22;32066;49.474;11.106;2023-02-26T10:40:36;4.40;75.90
46356;DHT22;32066;49.474;11.106;2023-02-26T10:43:15;4.50;75.70
46356;DHT22;32066;49.474;11.106;2023-02-26T10:46:06;4.70;74.70
46356;DHT22;32066;49.474;11.106;2023-02-26T10:48:45;4.80;73.80
46356;DHT22;32066;49.474;11.106;2023-02-26T10:51:19;5.20;72.20
46356;DHT22;32066;49.474;11.106;2023-02-26T10:53:51;5.30;72.50
46356;DHT22;32066;49.474;11.106;2023-02-26T10:56:25;5.40;72.40
46356;DHT22;32066;49.474;11.106;2023-02-26T10:58:57;5.60;72.00
46356;DHT22;32066;49.474;11.106;2023-02-26T11:01:28;5.60;72.10
46356;DHT22;32066;49.474;11.106;2023-02-26T11:03:59;5.60;71.40
46356;DHT22;32066;49.474;11.106;2023-02-26T11:06:32;5.30;72.90
46356;DHT22;32066;49.474;11.106;2023-02-26T11:09:02;5.20;74.20
46356;DHT22;32066;49.474;11.106;2023-02-26T11:11:41;5.20;74.10
46356;DHT22;32066;49.474;11.106;2023-02-26T11:14:13;5.10;74.70
46356;DHT22;32066;49.474;11.106;2023-02-26T11:16:47;5.00;75.50
46356;DHT22;32066;49.474;11.106;2023-02-26T11:19:19;5.10;75.50
46356;DHT22;32066;49.474;11.106;2023-02-26T11:21:51;5.20;75.60
46356;DHT22;32066;49.474;11.106;2023-02-26T11:24:26;5.40;74.70
46356;DHT22;32066;49.474;11.106;2023-02-26T11:26:57;5.40;75.30
46356;DHT22;32066;49.474;11.106;2023-02-26T11:29:35;5.70;75.00
46356;DHT22;32066;49.474;11.106;2023-02-26T11:32:06;6.00;73.40
46356;DHT22;32066;49.474;11.106;2023-02-26T11:34:45;5.80;73.20
46356;DHT22;32066;49.474;11.106;2023-02-26T11:37:18;6.00;73.30
46356;DHT22;32066;49.474;11.106;2023-02-26T11:39:56;6.00;72.70
46356;DHT22;32066;49.474;11.106;2023-02-26T11:42:26;6.10;72.00
46356;DHT22;32066;49.474;11.106;2023-02-26T11:44:57;6.20;71.40
46356;DHT22;32066;49.474;11.106;2023-02-26T11:47:29;6.20;70.90
46356;DHT22;32066;49.474;11.106;2023-02-26T11:50:01;6.30;70.00
46356;DHT22;32066;49.474;11.106;2023-02-26T11:52:33;6.50;69.10
46356;DHT22;32066;49.474;11.106;2023-02-26T11:55:04;6.70;69.80
46356;DHT22;32066;49.474;11.106;2023-02-26T11:57:33;7.00;70.10
46356;DHT22;32066;49.474;11.106;2023-02-26T12:00:17;7.20;70.10
46356;DHT22;32066;49.474;11.106;2023-02-26T12:02:47;7.50;68.80
46356;DHT22;32066;49.474;11.106;2023-02-26T12:05:16;7.60;69.00
46356;DHT22;32066;49.474;11.106;2023-02-26T12:07:46;7.60;67.70
46356;DHT22;32066;49.474;11.106;2023-02-26T12:10:18;7.80;66.70
46356;DHT22;32066;49.474;11.106;2023-02-26T12:13:07;7.50;65.10
46356;DHT22;32066;49.474;11.106;2023-02-26T12:15:48;7.20;65.50
46356;DHT22;32066;49.474;11.106;2023-02-26T12:18:44;7.00;65.00
46356;DHT22;32066;49.474;11.106;2023-02-26T12:21:27;6.60;65.50
46356;DHT22;32066;49.474;11.106;2023-02-26T12:24:26;6.60;65.60
46356;DHT22;32066;49.474;11.106;2023-02-26T12:27:05;6.50;64.30
46356;DHT22;32066;49.474;11.106;2023-02-26T12:29:50;6.40;65.20
46356;DHT22;32066;49.474;11.106;2023-02-26T12:32:41;6.00;65.50
46356;DHT22;32066;49.474;11.106;2023-02-26T12:35:33;6.10;66.90
46356;DHT22;32066;49.474;11.106;2023-02-26T12:38:19;6.30;66.80
46356;DHT22;32066;49.474;11.106;2023-02-26T12:41:11;6.00;68.00
46356;DHT22;32066;49.474;11.106;2023-02-26T12:43:46;5.80;68.20
46356;DHT22;32066;49.474;11.106;2023-02-26T12:46:23;5.70;67.10
46356;DHT22;32066;49.474;11.106;2023-02-26T12:49:21;5.70;66.70
46356;DHT22;32066;49.474;11.106;2023-02-26T12:55:15;5.60;67.40
46356;DHT22;32066;49.474;11.106;2023-02-26T12:57:53;5.60;67.80
46356;DHT22;32066;49.474;11.106;2023-02-26T13:03:58;5.30;67.40
46356;DHT22;32066;49.474;11.106;2023-02-26T13:06:57;5.20;67.00
46356;DHT22;32066;49.474;11.106;2023-02-26T13:09:37;5.30;67.50
46356;DHT22;32066;49.474;11.106;2023-02-26T13:12:17;5.50;66.40
46356;DHT22;32066;49.474;11.106;2023-02-26T13:14:52;5.70;65.70
46356;DHT22;32066;49.474;11.106;2023-02-26T13:17:27;6.00;65.60
46356;DHT22;32066;49.474;11.106;2023-02-26T13:20:00;6.40;64.60
46356;DHT22;32066;49.474;11.106;2023-02-26T13:22:36;6.40;63.00
46356;DHT22;32066;49.474;11.106;2023-02-26T13:25:15;6.30;62.80
46356;DHT22;32066;49.474;11.106;2023-02-26T13:27:45;6.70;62.40
46356;DHT22;32066;49.474;11.106;2023-02-26T13:30:22;6.90;62.00
46356;DHT22;32066;49.474;11.106;2023-02-26T13:32:55;6.70;61.70
46356;DHT22;32066;49.474;11.106;2023-02-26T13:35:28;6.50;62.10
46356;DHT22;32066;49.474;11.106;2023-02-26T13:38:05;6.70;62.50
46356;DHT22;32066;49.474;11.106;2023-02-26T13:40:45;7.10;63.10
46356;DHT22;32066;49.474;11.106;2023-02-26T13:46:35;7.80;60.90
46356;DHT22;32066;49.474;11.106;2023-02-26T13:49:13;8.10;59.60
46356;DHT22;32066;49.474;11.106;2023-02-26T13:51:46;8.40;59.30
46356;DHT22;32066;49.474;11.106;2023-02-26T13:54:40;9.10;58.00
46356;DHT22;32066;49.474;11.106;2023-02-26T13:57:24;9.30;56.60
46356;DHT22;32066;49.474;11.106;2023-02-26T13:59:58;9.70;56.70
46356;DHT22;32066;49.474;11.106;2023-02-26T14:02:45;9.20;55.60
46356;DHT22;32066;49.474;11.106;2023-02-26T14:05:54;9.40;55.50
46356;DHT22;32066;49.474;11.106;2023-02-26T14:08:43;9.10;55.20
46356;DHT22;32066;49.474;11.106;2023-02-26T14:11:42;9.20;55.10
46356;DHT22;32066;49.474;11.106;2023-02-26T14:14:28;9.60;55.00
46356;DHT22;32066;49.474;11.106;2023-02-26T14:17:28;9.50;53.90
46356;DHT22;32066;49.474;11.106;2023-02-26T14:20:18;9.60;54.20
46356;DHT22;32066;49.474;11.106;2023-02-26T14:22:50;9.20;56.00
46356;DHT22;32066;49.474;11.106;2023-02-26T14:25:29;8.90;54.40
46356;DHT22;32066;49.474;11.106;2023-02-26T14:28:31;8.40;53.70
46356;DHT22;32066;49.474;11.106;2023-02-26T14:31:22;8.60;54.70
46356;DHT22;32066;49.474;11.106;2023-02-26T14:34:06;8.80;54.80
46356;DHT22;32066;49.474;11.106;2023-02-26T14:36:42;8.90;54.10
46356;DHT22;32066;49.474;11.106;2023-02-26T14:39:23;8.50;54.20
46356;DHT22;32066;49.474;11.106;2023-02-26T14:41:57;7.90;54.90
46356;DHT22;32066;49.474;11.106;2023-02-26T14:44:33;7.70;55.60
46356;DHT22;32066;49.474;11.106;2023-02-26T14:47:03;7.70;56.60
46356;DHT22;32066;49.474;11.106;2023-02-26T14:49:34;8.00;56.00
46356;DHT22;32066;49.474;11.106;2023-02-26T14:52:23;8.30;55.60
46356;DHT22;32066;49.474;11.106;2023-02-26T14:58:18;7.60;55.90
46356;DHT22;32066;49.474;11.106;2023-02-26T15:00:57;7.40;56.80
46356;DHT22;32066;49.474;11.106;2023-02-26T15:03:43;7.20;56.30
46356;DHT22;32066;49.474;11.106;2023-02-26T15:06:29;7.10;56.40
46356;DHT22;32066;49.474;11.106;2023-02-26T15:09:11;6.90;57.20
46356;DHT22;32066;49.474;11.106;2023-02-26T15:11:56;6.90;57.80
46356;DHT22;32066;49.474;11.106;2023-02-26T15:14:59;6.40;58.00
46356;DHT22;32066;49.474;11.106;2023-02-26T15:17:51;5.90;58.70
46356;DHT22;32066;49.474;11.106;2023-02-26T15:20:30;5.80;59.60
46356;DHT22;32066;49.474;11.106;2023-02-26T15:25:54;6.00;59.50
46356;DHT22;32066;49.474;11.106;2023-02-26T15:28:26;6.00;59.20
46356;DHT22;32066;49.474;11.106;2023-02-26T15:30:57;6.00;59.20
46356;DHT22;32066;49.474;11.106;2023-02-26T15:33:29;6.00;59.80
46356;DHT22;32066;49.474;11.106;2023-02-26T15:35:59;5.80;59.70
46356;DHT22;32066;49.474;11.106;2023-02-26T15:38:28;5.70;59.50
46356;DHT22;32066;49.474;11.106;2023-02-26T15:41:01;5.70;60.00
46356;DHT22;32066;49.474;11.106;2023-02-26T15:43:30;5.70;60.20
46356;DHT22;32066;49.474;11.106;2023-02-26T15:45:59;5.70;60.40
46356;DHT22;32066;49.474;11.106;2023-02-26T15:48:33;5.70;60.20
46356;DHT22;32066;49.474;11.106;2023-02-26T15:51:04;5.60;60.20
46356;DHT22;32066;49.474;11.106;2023-02-26T15:53:36;5.50;60.60
46356;DHT22;32066;49.474;11.106;2023-02-26T15:56:08;5.40;60.10
46356;DHT22;32066;49.474;11.106;2023-02-26T15:58:40;5.20;60.70
46356;DHT22;32066;49.474;11.106;2023-02-26T16:01:15;5.00;61.10
46356;DHT22;32066;49.474;11.106;2023-02-26T16:03:49;4.90;61.50
46356;DHT22;32066;49.474;11.106;2023-02-26T16:06:22;4.80;61.50
46356;DHT22;32066;49.474;11.106;2023-02-26T16:08:51;4.90;61.40
46356;DHT22;32066;49.474;11.106;2023-02-26T16:11:20;4.90;61.30
46356;DHT22;32066;49.474;11.106;2023-02-26T16:13:51;4.90;61.80
46356;DHT22;32066;49.474;11.106;2023-02-26T16:16:23;4.80;61.60
46356;DHT22;32066;49.474;11.106;2023-02-26T16:18:56;4.60;62.80
46356;DHT22;32066;49.474;11.106;2023-02-26T16:21:28;4.50;63.30
46356;DHT22;32066;49.474;11.106;2023-02-26T16:23:59;4.60;63.40
46356;DHT22;32066;49.474;11.106;2023-02-26T16:26:31;4.70;63.30
46356;DHT22;32066;49.474;11.106;2023-02-26T16:29:03;4.80;62.90
46356;DHT22;32066;49.474;11.106;2023-02-26T16:31:33;4.60;62.80
46356;DHT22;32066;49.474;11.106;2023-02-26T16:34:27;4.50;63.50